Time;durP1;ratioP1;P1;durP2;ratioP2;P2;SDS_P1;SDS_P2;PMS_P1;PMS_P2;Temp;Humidity;BMP_temperature;BMP_pressure;BME280_temperature;BME280_humidity;BME280_pressure;Samples;Min_cycle;Max_cycle;Signal;HPM_P1;HPM_P2
2023/03/07 00:03:00;;;;;;;0.57;0.52;;;20.70;32.40;;;;;;6129081;29;20131;-51
2023/03/07 00:06:04;;;;;;;0.50;0.50;;;20.70;32.40;;;;;;6128973;29;20044;-54
2023/03/07 00:09:06;;;;;;;0.57;0.57;;;20.50;32.20;;;;;;6128073;29;20050;-54
2023/03/07 00:12:10;;;;;;;0.40;0.40;;;20.40;32.20;;;;;;6128830;29;20095;-54
2023/03/07 00:15:12;;;;;;;0.60;0.50;;;20.60;32.40;;;;;;6128800;29;20046;-55
2023/03/07 00:18:13;;;;;;;0.50;0.50;;;20.60;32.40;;;;;;6129023;29;20412;-54
2023/03/07 00:21:18;;;;;;;0.85;0.30;;;20.60;32.40;;;;;;6128647;29;20043;-51
2023/03/07 00:24:20;;;;;;;0.60;0.60;;;20.80;32.40;;;;;;6128864;29;20139;-52
2023/03/07 00:27:21;;;;;;;0.57;0.43;;;20.40;32.30;;;;;;6128868;29;20040;-54
2023/03/07 00:30:22;;;;;;;0.70;0.40;;;20.50;32.30;;;;;;6127706;29;20039;-52
2023/03/07 00:33:24;;;;;;;0.50;0.50;;;20.70;32.40;;;;;;6128443;29;20571;-51
2023/03/07 00:36:26;;;;;;;0.50;0.35;;;20.60;32.40;;;;;;6128790;29;20099;-53
2023/03/07 00:39:28;;;;;;;0.40;0.40;;;20.70;32.40;;;;;;6128804;29;20040;-54
2023/03/07 00:42:29;;;;;;;0.57;0.50;;;20.60;32.40;;;;;;6128260;29;20451;-53
2023/03/07 00:45:30;;;;;;;;;;;20.60;32.40;;;;;;6128990;29;20039;-51
2023/03/07 00:48:33;;;;;;;0.60;0.43;;;20.40;32.50;;;;;;6128291;29;19922;-54
2023/03/07 00:51:36;;;;;;;0.28;0.28;;;20.70;32.40;;;;;;6129162;29;20118;-54
2023/03/07 00:54:41;;;;;;;0.60;0.45;;;20.60;32.40;;;;;;6128377;29;20087;-53
2023/03/07 00:57:42;;;;;;;0.50;0.47;;;20.30;32.20;;;;;;6128654;29;20051;-54
2023/03/07 01:00:44;;;;;;;0.82;0.60;;;20.40;32.30;;;;;;6128793;29;20058;-53
2023/03/07 01:03:48;;;;;;;;;;;20.70;32.50;;;;;;6128602;29;20063;-54
2023/03/07 01:06:50;;;;;;;0.80;0.50;;;20.30;32.40;;;;;;6128199;29;19933;-53
2023/03/07 01:09:52;;;;;;;0.60;0.60;;;20.60;32.40;;;;;;6127851;29;20095;-54
2023/03/07 01:12:53;;;;;;;0.52;0.35;;;20.50;32.40;;;;;;6128036;29;20044;-54
2023/03/07 01:15:55;;;;;;;0.60;0.43;;;20.50;32.40;;;;;;6127798;29;20052;-53
2023/03/07 01:18:58;;;;;;;0.52;0.52;;;20.30;32.40;;;;;;6127658;29;20107;-54
2023/03/07 01:22:01;;;;;;;0.40;0.40;;;20.50;32.40;;;;;;6127409;29;20423;-54
2023/03/07 01:25:05;;;;;;;0.60;0.50;;;20.50;32.40;;;;;;6127851;29;20047;-53
2023/03/07 01:28:08;;;;;;;0.40;0.40;;;20.70;32.40;;;;;;6127537;29;20043;-53
2023/03/07 01:31:11;;;;;;;0.40;0.40;;;20.30;32.30;;;;;;6127339;29;20052;-51
2023/03/07 01:34:14;;;;;;;0.50;0.50;;;20.50;32.40;;;;;;6111185;29;20087;-53
2023/03/07 01:37:18;;;;;;;0.40;0.40;;;20.40;32.40;;;;;;6127372;29;20123;-55
2023/03/07 01:40:22;;;;;;;0.30;0.30;;;20.50;32.40;;;;;;6126902;29;20060;-53
2023/03/07 01:43:26;;;;;;;0.57;0.40;;;20.50;32.40;;;;;;6126016;29;20058;-54
2023/03/07 01:46:44;;;;;;;0.40;0.40;;;20.20;32.30;;;;;;6112032;29;20572;-54
2023/03/07 01:49:46;;;;;;;0.40;0.40;;;20.30;32.30;;;;;;6110480;29;20076;-54
2023/03/07 01:52:52;;;;;;;0.40;0.40;;;20.60;32.50;;;;;;6127325;29;20054;-55
2023/03/07 01:55:56;;;;;;;0.47;0.47;;;20.60;32.50;;;;;;6126975;29;20389;-52
2023/03/07 01:58:58;;;;;;;0.40;0.40;;;20.60;32.50;;;;;;6127240;29;20043;-53
2023/03/07 02:02:04;;;;;;;0.40;0.40;;;20.70;32.60;;;;;;6127102;29;20044;-53
2023/03/07 02:05:11;;;;;;;0.35;0.35;;;20.50;32.40;;;;;;6125589;29;20103;-55
2023/03/07 02:08:16;;;;;;;0.50;0.50;;;20.50;32.50;;;;;;6126791;29;20050;-52
2023/03/07 02:11:17;;;;;;;0.50;0.50;;;20.70;32.50;;;;;;6125657;29;20378;-54
2023/03/07 02:14:19;;;;;;;0.40;0.40;;;20.60;32.50;;;;;;6126789;29;20043;-52
2023/03/07 02:17:21;;;;;;;0.20;0.20;;;20.50;32.50;;;;;;6126701;29;20043;-54
2023/03/07 02:20:34;;;;;;;0.40;0.40;;;20.40;33.10;;;;;;6127217;29;20058;-54
2023/03/07 02:23:43;;;;;;;0.30;0.30;;;20.60;32.50;;;;;;6126808;29;20138;-54
2023/03/07 02:26:46;;;;;;;0.40;0.30;;;20.50;32.50;;;;;;6126157;29;20408;-54
2023/03/07 02:29:48;;;;;;;0.52;0.50;;;20.30;32.40;;;;;;6125257;29;20086;-54
2023/03/07 02:32:50;;;;;;;0.30;0.30;;;20.20;32.40;;;;;;6126653;29;20125;-53
2023/03/07 02:35:53;;;;;;;;;;;20.50;32.50;;;;;;6127160;29;20040;-54
2023/03/07 02:38:56;;;;;;;0.40;0.40;;;20.30;32.50;;;;;;6126304;28;19930;-53
2023/03/07 02:42:06;;;;;;;0.22;0.22;;;20.30;32.40;;;;;;6126762;29;20044;-51
2023/03/07 02:45:18;;;;;;;0.40;0.32;;;20.40;32.50;;;;;;6126230;29;20052;-53
2023/03/07 02:48:20;;;;;;;0.60;0.50;;;20.30;32.50;;;;;;6109516;29;20055;-53
2023/03/07 02:51:23;;;;;;;0.20;0.20;;;20.40;32.60;;;;;;6125386;29;20048;-53
2023/03/07 02:54:25;;;;;;;0.47;0.40;;;20.60;32.70;;;;;;6130058;29;20134;-53
2023/03/07 02:57:27;;;;;;;0.40;0.40;;;20.70;32.80;;;;;;6130225;29;20079;-53
2023/03/07 03:00:32;;;;;;;0.40;0.35;;;20.60;32.80;;;;;;6130548;29;20043;-52
2023/03/07 03:03:34;;;;;;;0.45;0.30;;;20.60;32.70;;;;;;6130109;29;20111;-53
2023/03/07 03:06:35;;;;;;;0.40;0.40;;;20.60;32.80;;;;;;6130106;29;20044;-54
2023/03/07 03:09:37;;;;;;;0.50;0.43;;;20.40;32.70;;;;;;6130369;29;20048;-53
2023/03/07 03:12:39;;;;;;;;;;;20.60;32.80;;;;;;6130224;29;20524;-52
2023/03/07 03:15:43;;;;;;;0.40;0.32;;;20.30;32.70;;;;;;6130308;29;19923;-52
2023/03/07 03:18:44;;;;;;;;;;;20.50;32.70;;;;;;6130622;29;20071;-52
2023/03/07 03:21:47;;;;;;;0.65;0.52;;;20.50;32.90;;;;;;6130267;29;19930;-50
2023/03/07 03:24:50;;;;;;;0.63;0.43;;;20.30;32.70;;;;;;6129420;29;20218;-53
2023/03/07 03:27:56;;;;;;;0.57;0.43;;;20.20;32.70;;;;;;6130269;29;20082;-53
2023/03/07 03:31:03;;;;;;;0.65;0.55;;;20.40;32.80;;;;;;6129800;29;20055;-53
2023/03/07 03:34:05;;;;;;;0.40;0.40;;;20.20;32.70;;;;;;6128241;29;20517;-54
2023/03/07 03:37:08;;;;;;;0.68;0.60;;;20.30;32.80;;;;;;6129447;29;20052;-54
2023/03/07 03:40:13;;;;;;;0.93;0.73;;;20.50;33.00;;;;;;6129672;29;20055;-54
2023/03/07 03:43:17;;;;;;;0.32;0.32;;;20.50;33.00;;;;;;6129390;29;20075;-53
2023/03/07 03:46:20;;;;;;;0.50;0.50;;;20.60;33.10;;;;;;6128046;29;20058;-54
2023/03/07 03:49:22;;;;;;;0.40;0.40;;;20.60;33.10;;;;;;6129670;29;20048;-52
2023/03/07 03:52:25;;;;;;;0.88;0.50;;;20.30;33.00;;;;;;6129971;29;20039;-53
2023/03/07 03:55:27;;;;;;;;;;;20.60;33.20;;;;;;6129637;29;20118;-50
2023/03/07 03:58:29;;;;;;;;;;;20.50;33.20;;;;;;6129798;29;19923;-54
2023/03/07 04:01:34;;;;;;;1.02;0.70;;;20.30;33.10;;;;;;6129169;29;19927;-54
2023/03/07 04:04:35;;;;;;;0.70;0.55;;;20.30;33.00;;;;;;6128745;29;20043;-52
2023/03/07 04:07:40;;;;;;;0.63;0.50;;;20.30;33.10;;;;;;6129230;29;20083;-54
2023/03/07 04:10:44;;;;;;;;;;;20.70;33.40;;;;;;6129065;29;20134;-54
2023/03/07 04:13:46;;;;;;;0.57;0.50;;;20.50;33.40;;;;;;6128723;29;19923;-52
2023/03/07 04:16:49;;;;;;;0.50;0.50;;;20.50;33.30;;;;;;6127774;29;20564;-53
2023/03/07 04:19:51;;;;;;;0.68;0.68;;;20.20;33.20;;;;;;6128708;29;20508;-52
2023/03/07 04:22:53;;;;;;;0.68;0.50;;;20.40;33.40;;;;;;6128526;29;20043;-53
2023/03/07 04:25:56;;;;;;;0.60;0.50;;;20.50;33.40;;;;;;6128857;29;20048;-52
2023/03/07 04:28:59;;;;;;;0.60;0.50;;;20.20;33.30;;;;;;6111978;29;20126;-53
2023/03/07 04:32:05;;;;;;;0.77;0.50;;;20.60;33.60;;;;;;6128490;29;20056;-53
2023/03/07 04:35:08;;;;;;;0.57;0.50;;;20.40;33.50;;;;;;6128807;29;20055;-50
2023/03/07 04:38:09;;;;;;;0.63;0.60;;;20.20;33.40;;;;;;6128424;29;20048;-54
2023/03/07 04:41:14;;;;;;;0.68;0.63;;;20.30;33.50;;;;;;6128336;29;20047;-52
2023/03/07 04:44:16;;;;;;;0.70;0.60;;;20.20;33.40;;;;;;6127102;29;20054;-52
2023/03/07 04:47:17;;;;;;;0.68;0.68;;;20.50;33.60;;;;;;6128699;29;20051;-53
2023/03/07 04:50:19;;;;;;;;;;;20.50;33.60;;;;;;6128551;29;20043;-53
2023/03/07 04:53:21;;;;;;;0.93;0.80;;;20.40;33.70;;;;;;6128409;29;19923;-53
2023/03/07 04:56:23;;;;;;;0.60;0.50;;;20.60;33.70;;;;;;6128607;29;20044;-54
2023/03/07 04:59:25;;;;;;;0.80;0.65;;;20.40;33.60;;;;;;6128080;29;20111;-53
2023/03/07 05:02:27;;;;;;;1.23;0.80;;;20.20;33.60;;;;;;6128214;29;20531;-51
2023/03/07 05:05:29;;;;;;;0.70;0.60;;;20.50;33.70;;;;;;6128559;29;20098;-50
2023/03/07 05:08:32;;;;;;;1.00;0.60;;;20.40;33.70;;;;;;6128844;29;20528;-54
2023/03/07 05:11:34;;;;;;;0.80;0.57;;;20.20;33.60;;;;;;6127540;29;20048;-53
2023/03/07 05:14:40;;;;;;;0.90;0.80;;;20.30;33.60;;;;;;6127284;29;20413;-54
2023/03/07 05:17:41;;;;;;;0.93;0.65;;;20.40;33.70;;;;;;6127323;29;20051;-51
2023/03/07 05:20:43;;;;;;;0.85;0.68;;;20.50;33.70;;;;;;6128124;29;20051;-53
2023/03/07 05:23:47;;;;;;;;;;;20.20;33.60;;;;;;6128073;29;20135;-54
2023/03/07 05:26:48;;;;;;;1.35;0.82;;;20.50;33.90;;;;;;6127530;29;19929;-53
2023/03/07 05:29:54;;;;;;;0.60;0.55;;;20.30;33.60;;;;;;6127341;29;20527;-53
2023/03/07 05:32:57;;;;;;;0.93;0.70;;;20.50;33.40;;;;;;6127601;29;20480;-49
2023/03/07 05:36:00;;;;;;;2.05;0.80;;;20.50;33.60;;;;;;6127429;29;20062;-54
2023/03/07 05:39:03;;;;;;;0.90;0.73;;;20.30;33.60;;;;;;6127223;29;20076;-52
2023/03/07 05:42:06;;;;;;;1.23;0.80;;;20.20;34.10;;;;;;6126016;29;20075;-53
2023/03/07 05:45:10;;;;;;;0.85;0.70;;;20.30;33.50;;;;;;6127114;29;20048;-53
2023/03/07 05:48:15;;;;;;;1.38;0.60;;;20.20;33.50;;;;;;6126376;29;20119;-52
2023/03/07 05:51:16;;;;;;;;;;;20.60;33.70;;;;;;6127661;29;20044;-54
2023/03/07 05:54:18;;;;;;;1.40;0.70;;;20.50;33.70;;;;;;6126634;28;19945;-52
2023/03/07 05:57:21;;;;;;;0.98;0.60;;;20.30;33.50;;;;;;6126907;29;20051;-54
2023/03/07 06:00:23;;;;;;;0.90;0.80;;;20.50;33.50;;;;;;6125707;29;20131;-54
2023/03/07 06:03:30;;;;;;;1.30;0.70;;;20.40;33.50;;;;;;6126781;29;20138;-53
2023/03/07 06:06:32;;;;;;;1.25;0.95;;;20.30;33.40;;;;;;6127445;29;20042;-53
2023/03/07 06:09:37;;;;;;;;;;;20.10;33.20;;;;;;6127597;29;20497;-54
2023/03/07 06:12:42;;;;;;;0.80;0.63;;;20.50;33.50;;;;;;6126811;29;19929;-54
2023/03/07 06:15:44;;;;;;;0.80;0.60;;;20.20;33.20;;;;;;6126665;29;20054;-53
2023/03/07 06:18:46;;;;;;;1.15;0.75;;;20.50;33.30;;;;;;6126987;29;20054;-53
2023/03/07 06:21:48;;;;;;;0.95;0.65;;;20.30;33.10;;;;;;6126340;29;20051;-53
2023/03/07 06:24:49;;;;;;;0.93;0.82;;;20.10;33.00;;;;;;6126374;29;20044;-53
2023/03/07 06:27:51;;;;;;;;;;;20.50;33.10;;;;;;6129457;29;20095;-50
2023/03/07 06:30:54;;;;;;;0.73;0.73;;;20.60;33.30;;;;;;6130738;29;19922;-52
2023/03/07 06:33:55;;;;;;;0.93;0.63;;;20.50;33.10;;;;;;6130740;29;20055;-51
2023/03/07 06:37:00;;;;;;;0.80;0.80;;;20.70;33.10;;;;;;6130949;29;20059;-52
2023/03/07 06:40:05;;;;;;;;;;;20.30;32.90;;;;;;6131074;29;20134;-53
2023/03/07 06:43:10;;;;;;;0.80;0.70;;;20.60;33.20;;;;;;6130921;29;19923;-54
2023/03/07 06:46:12;;;;;;;0.57;0.57;;;20.10;32.80;;;;;;6129215;29;20047;-52
2023/03/07 06:49:18;;;;;;;0.70;0.52;;;20.20;32.80;;;;;;6130924;29;20488;-50
2023/03/07 06:52:22;;;;;;;0.60;0.50;;;20.40;32.90;;;;;;6130200;29;20039;-54
2023/03/07 06:55:24;;;;;;;0.82;0.70;;;20.50;32.80;;;;;;6130628;29;20048;-51
2023/03/07 06:58:28;;;;;;;0.75;0.70;;;20.30;32.70;;;;;;6130630;29;20066;-53
2023/03/07 07:01:34;;;;;;;0.70;0.50;;;20.50;32.70;;;;;;6130099;29;20091;-53
2023/03/07 07:04:36;;;;;;;0.73;0.65;;;20.00;32.50;;;;;;6129798;29;20054;-52
2023/03/07 07:07:38;;;;;;;;;;;20.60;32.70;;;;;;6130424;29;20130;-54
2023/03/07 07:10:40;;;;;;;0.50;0.40;;;20.40;32.70;;;;;;6129946;29;19933;-54
2023/03/07 07:13:42;;;;;;;1.30;0.57;;;20.20;32.30;;;;;;6129833;29;20123;-50
2023/03/07 07:16:48;;;;;;;0.85;0.68;;;20.30;32.50;;;;;;6130048;29;20071;-53
2023/03/07 07:19:50;;;;;;;0.60;0.50;;;20.20;32.40;;;;;;6129876;29;20035;-52
2023/03/07 07:22:52;;;;;;;0.50;0.40;;;20.50;32.50;;;;;;6129730;29;20061;-52
2023/03/07 07:25:54;;;;;;;0.90;0.50;;;20.90;32.60;;;;;;6129750;29;20123;-52
2023/03/07 07:28:57;;;;;;;0.60;0.60;;;20.50;32.30;;;;;;6129992;29;20036;-53
2023/03/07 07:31:59;;;;;;;0.80;0.50;;;20.40;32.20;;;;;;6129274;29;20055;-52
2023/03/07 07:35:02;;;;;;;0.63;0.60;;;20.40;32.20;;;;;;6129475;29;20052;-51
2023/03/07 07:38:05;;;;;;;0.88;0.60;;;20.70;32.30;;;;;;6128710;29;20078;-53
2023/03/07 07:41:06;;;;;;;0.70;0.70;;;20.40;32.20;;;;;;6128921;29;20054;-53
2023/03/07 07:44:09;;;;;;;0.60;0.50;;;20.60;32.30;;;;;;6129022;29;20051;-51
2023/03/07 07:47:18;;;;;;;0.60;0.60;;;20.40;32.70;;;;;;6129215;29;20064;-53
2023/03/07 07:50:21;;;;;;;0.70;0.52;;;20.60;32.20;;;;;;6128914;29;20131;-53
2023/03/07 07:53:24;;;;;;;0.60;0.60;;;20.60;32.10;;;;;;6127661;29;20102;-51
2023/03/07 07:56:26;;;;;;;0.75;0.57;;;20.80;32.00;;;;;;6128880;29;20131;-55
2023/03/07 07:59:27;;;;;;;;;;;20.50;32.00;;;;;;6128996;29;20488;-54
2023/03/07 08:02:36;;;;;;;0.80;0.55;;;20.70;32.10;;;;;;6128092;29;19930;-53
2023/03/07 08:05:42;;;;;;;0.60;0.60;;;20.50;31.90;;;;;;6127461;29;20066;-54
2023/03/07 08:08:44;;;;;;;0.80;0.70;;;20.70;32.00;;;;;;6128401;29;20044;-53
2023/03/07 08:11:45;;;;;;;0.75;0.55;;;20.80;32.10;;;;;;6128376;29;20042;-54
2023/03/07 08:14:49;;;;;;;;;;;20.80;32.10;;;;;;6129067;29;20055;-53
2023/03/07 08:17:52;;;;;;;0.73;0.68;;;20.80;31.90;;;;;;6128400;29;19923;-54
2023/03/07 08:20:53;;;;;;;1.02;0.75;;;20.80;32.00;;;;;;6128998;29;20051;-52
2023/03/07 08:23:55;;;;;;;1.42;1.00;;;21.00;32.10;;;;;;6128372;29;20099;-52
2023/03/07 08:26:57;;;;;;;0.90;0.70;;;20.90;32.00;;;;;;6128632;29;20043;-53
2023/03/07 08:30:00;;;;;;;1.00;0.65;;;20.90;32.00;;;;;;6128336;29;20046;-52
2023/03/07 08:33:02;;;;;;;1.20;0.85;;;20.80;32.10;;;;;;6128172;29;20055;-52
2023/03/07 08:36:05;;;;;;;0.80;0.80;;;20.80;32.00;;;;;;6128111;29;20059;-51
2023/03/07 08:39:08;;;;;;;0.75;0.60;;;20.70;31.90;;;;;;6128583;29;20499;-54
2023/03/07 08:42:09;;;;;;;;;;;20.80;31.90;;;;;;6128483;29;20071;-50
2023/03/07 08:45:11;;;;;;;0.82;0.55;;;20.90;32.10;;;;;;6128626;29;20483;-53
2023/03/07 08:48:13;;;;;;;0.65;0.57;;;20.80;31.90;;;;;;6127815;29;20044;-52
2023/03/07 08:51:17;;;;;;;0.70;0.70;;;20.70;31.90;;;;;;6127281;29;20071;-47
2023/03/07 08:54:18;;;;;;;0.90;0.57;;;21.00;32.00;;;;;;6126710;29;20048;-53
2023/03/07 08:57:19;;;;;;;0.68;0.60;;;21.00;32.00;;;;;;6127431;29;20540;-52
2023/03/07 09:00:21;;;;;;;;;;;20.90;31.90;;;;;;6128198;29;20063;-53
2023/03/07 09:03:23;;;;;;;0.80;0.70;;;21.00;32.00;;;;;;6127848;29;20422;-53
2023/03/07 09:06:25;;;;;;;0.60;0.50;;;20.90;31.90;;;;;;6127711;29;20043;-51
2023/03/07 09:09:27;;;;;;;0.80;0.70;;;20.90;31.90;;;;;;6126862;29;20094;-54
2023/03/07 09:12:28;;;;;;;0.75;0.60;;;20.80;31.80;;;;;;6127709;29;20460;-54
2023/03/07 09:15:30;;;;;;;0.68;0.40;;;20.90;32.50;;;;;;6127308;29;20079;-54
2023/03/07 09:18:33;;;;;;;0.77;0.63;;;21.00;31.80;;;;;;6125953;29;20067;-52
2023/03/07 09:21:34;;;;;;;0.60;0.50;;;21.10;31.90;;;;;;6127074;29;20043;-54
2023/03/07 09:24:39;;;;;;;0.90;0.60;;;21.10;31.90;;;;;;6127124;29;20606;-53
2023/03/07 09:27:41;;;;;;;0.80;0.70;;;21.00;31.80;;;;;;6127208;29;20055;-54
2023/03/07 09:30:45;;;;;;;0.68;0.60;;;21.10;31.80;;;;;;6126953;29;20070;-52
2023/03/07 09:33:48;;;;;;;0.90;0.63;;;21.00;31.70;;;;;;6127481;29;20040;-52
2023/03/07 09:36:50;;;;;;;0.95;0.65;;;20.90;31.60;;;;;;6127047;29;20500;-54
2023/03/07 09:39:51;;;;;;;0.60;0.50;;;21.20;31.80;;;;;;6127057;29;20330;-52
2023/03/07 09:43:00;;;;;;;0.95;0.80;;;21.10;31.70;;;;;;6126742;29;20046;-53
2023/03/07 09:46:13;;;;;;;0.90;0.70;;;21.20;31.70;;;;;;6125189;29;20052;-53
2023/03/07 09:49:18;;;;;;;1.00;0.80;;;21.20;31.70;;;;;;6126585;29;20047;-53
2023/03/07 09:52:23;;;;;;;1.00;0.73;;;21.30;31.70;;;;;;6125487;29;20137;-50
2023/03/07 09:55:29;;;;;;;0.80;0.60;;;21.10;31.60;;;;;;6125262;29;20043;-54
2023/03/07 09:58:32;;;;;;;0.70;0.60;;;21.00;31.50;;;;;;6125479;29;20500;-50
2023/03/07 10:01:37;;;;;;;1.00;0.82;;;21.20;31.60;;;;;;6126687;29;20048;-52
2023/03/07 10:04:45;;;;;;;0.60;0.60;;;21.20;31.70;;;;;;6126431;29;20137;-52
2023/03/07 10:07:47;;;;;;;1.05;0.63;;;21.20;32.10;;;;;;6126893;29;20055;-52
2023/03/07 10:10:55;;;;;;;0.88;0.70;;;21.20;31.50;;;;;;6126720;29;20040;-53
2023/03/07 10:14:19;;;;;;;0.70;0.70;;;21.20;31.50;;;;;;6125716;29;20048;-53
2023/03/07 10:17:34;;;;;;;0.65;0.60;;;21.30;31.50;;;;;;6125222;29;20047;-53
2023/03/07 10:20:48;;;;;;;0.77;0.63;;;21.00;31.30;;;;;;6126498;29;20159;-54
2023/03/07 10:24:07;;;;;;;0.60;0.52;;;21.10;31.40;;;;;;6125007;29;20099;-52
2023/03/07 10:27:10;;;;;;;0.85;0.60;;;21.00;31.40;;;;;;6126164;29;20103;-53
2023/03/07 10:30:16;;;;;;;0.40;0.40;;;21.30;31.60;;;;;;6126757;29;20044;-52
2023/03/07 10:33:19;;;;;;;0.63;0.50;;;21.30;31.50;;;;;;6126013;29;20146;-54
2023/03/07 10:36:34;;;;;;;0.75;0.60;;;21.30;31.50;;;;;;6124446;29;20115;-53
2023/03/07 10:39:44;;;;;;;0.57;0.50;;;21.20;31.30;;;;;;6126182;29;20051;-53
2023/03/07 10:42:45;;;;;;;0.75;0.50;;;21.30;31.30;;;;;;6124417;29;20055;-53
2023/03/07 10:45:47;;;;;;;;;;;21.10;31.20;;;;;;6126293;29;20051;-54
2023/03/07 10:48:52;;;;;;;0.65;0.50;;;21.20;31.30;;;;;;6126081;29;19930;-50
2023/03/07 10:52:00;;;;;;;0.50;0.50;;;21.30;31.20;;;;;;6127210;29;20048;-53
2023/03/07 10:55:30;;;;;;;0.75;0.50;;;21.30;31.20;;;;;;6127012;29;20044;-53
2023/03/07 10:58:31;;;;;;;0.60;0.50;;;21.20;31.20;;;;;;6125748;29;20048;-54
2023/03/07 11:01:34;;;;;;;0.45;0.40;;;21.40;31.30;;;;;;6126801;29;20043;-53
2023/03/07 11:04:45;;;;;;;0.60;0.45;;;21.10;31.10;;;;;;6126810;29;20564;-53
2023/03/07 11:07:47;;;;;;;0.73;0.60;;;21.30;31.10;;;;;;6126357;29;20040;-52
2023/03/07 11:10:49;;;;;;;1.02;0.50;;;21.30;31.10;;;;;;6126186;29;20158;-55
2023/03/07 11:14:06;;;;;;;0.45;0.45;;;21.30;31.10;;;;;;6128623;29;20405;-53
2023/03/07 11:17:18;;;;;;;0.50;0.50;;;21.30;31.00;;;;;;6129167;29;20082;-54
2023/03/07 11:20:24;;;;;;;0.40;0.40;;;21.30;31.00;;;;;;6128825;29;20551;-53
2023/03/07 11:23:29;;;;;;;0.40;0.40;;;21.30;30.90;;;;;;6112879;29;20095;-53
2023/03/07 11:26:37;;;;;;;0.75;0.60;;;21.20;30.90;;;;;;6128667;29;20094;-52
2023/03/07 11:29:41;;;;;;;0.70;0.40;;;21.10;31.40;;;;;;6128246;29;20035;-53
2023/03/07 11:32:57;;;;;;;0.35;0.32;;;21.30;30.80;;;;;;6129226;29;20099;-52
2023/03/07 11:36:02;;;;;;;0.70;0.60;;;21.20;30.70;;;;;;6129571;29;20048;-55
2023/03/07 11:39:20;;;;;;;0.70;0.60;;;21.30;30.80;;;;;;6129170;29;20111;-53
2023/03/07 11:42:26;;;;;;;0.80;0.75;;;21.20;30.70;;;;;;6129012;29;20390;-50
2023/03/07 11:45:35;;;;;;;0.60;0.50;;;21.40;30.80;;;;;;6127733;29;20048;-52
2023/03/07 11:48:52;;;;;;;0.60;0.60;;;21.20;30.70;;;;;;6127597;29;20051;-52
2023/03/07 11:52:03;;;;;;;0.60;0.40;;;21.20;30.80;;;;;;6129359;29;20043;-50
2023/03/07 11:55:23;;;;;;;0.75;0.50;;;21.40;30.90;;;;;;6128822;29;20058;-53
2023/03/07 11:58:38;;;;;;;0.63;0.60;;;21.20;30.90;;;;;;6127798;29;20127;-52
2023/03/07 12:01:50;;;;;;;0.55;0.47;;;21.20;30.90;;;;;;6128822;29;20047;-53
2023/03/07 12:05:10;;;;;;;0.75;0.60;;;21.20;30.90;;;;;;6128698;29;20047;-53
2023/03/07 12:08:28;;;;;;;0.52;0.47;;;21.40;31.10;;;;;;6128453;29;20099;-53
2023/03/07 12:11:46;;;;;;;0.60;0.60;;;21.40;31.10;;;;;;6129133;29;20043;-54
2023/03/07 12:15:00;;;;;;;0.55;0.55;;;21.30;31.10;;;;;;6128335;29;20048;-55
2023/03/07 12:18:17;;;;;;;0.60;0.50;;;21.40;31.20;;;;;;6128414;29;20052;-54
2023/03/07 12:21:40;;;;;;;0.80;0.70;;;21.40;31.30;;;;;;6128626;29;20131;-54
2023/03/07 12:24:54;;;;;;;0.65;0.60;;;21.30;31.40;;;;;;6127174;29;20062;-51
2023/03/07 12:28:08;;;;;;;0.50;0.50;;;21.40;31.60;;;;;;6128265;29;20055;-52
2023/03/07 12:31:14;;;;;;;0.90;0.60;;;21.30;31.60;;;;;;6128199;29;20531;-54
2023/03/07 12:34:26;;;;;;;0.70;0.50;;;21.40;31.70;;;;;;6128346;29;20055;-52
2023/03/07 12:37:32;;;;;;;0.70;0.70;;;21.20;31.70;;;;;;6127153;29;20047;-54
2023/03/07 12:40:39;;;;;;;2.05;1.08;;;21.20;31.80;;;;;;6127814;29;20051;-53
2023/03/07 12:43:46;;;;;;;0.47;0.47;;;21.30;31.90;;;;;;6128441;29;20477;-54
2023/03/07 12:46:54;;;;;;;0.70;0.70;;;21.40;32.10;;;;;;6127808;29;20055;-50
2023/03/07 12:50:01;;;;;;;0.85;0.70;;;21.40;32.10;;;;;;6127913;29;20039;-55
2023/03/07 12:53:10;;;;;;;0.60;0.60;;;21.20;32.20;;;;;;6127650;29;20051;-54
2023/03/07 12:56:17;;;;;;;0.63;0.60;;;21.50;32.40;;;;;;6126966;29;20056;-52
2023/03/07 12:59:20;;;;;;;0.63;0.55;;;21.40;32.40;;;;;;6126603;29;20056;-53
2023/03/07 13:02:27;;;;;;;0.50;0.50;;;21.30;32.50;;;;;;6127505;29;20048;-53
2023/03/07 13:05:29;;;;;;;0.57;0.50;;;21.30;32.60;;;;;;6127455;29;20047;-52
2023/03/07 13:08:31;;;;;;;0.68;0.57;;;21.50;32.80;;;;;;6126314;29;20043;-53
2023/03/07 13:11:37;;;;;;;0.57;0.50;;;21.40;32.90;;;;;;6127675;29;20043;-54
2023/03/07 13:14:40;;;;;;;1.02;0.60;;;21.20;32.80;;;;;;6127441;29;20052;-54
2023/03/07 13:17:58;;;;;;;0.50;0.50;;;21.50;33.10;;;;;;6126179;29;20044;-52
2023/03/07 13:21:07;;;;;;;0.98;0.68;;;21.30;33.00;;;;;;6127757;29;20054;-54
2023/03/07 13:24:32;;;;;;;0.70;0.60;;;21.30;33.10;;;;;;6127181;29;20496;-51
2023/03/07 13:27:44;;;;;;;0.70;0.65;;;21.50;33.20;;;;;;6125889;29;20047;-53
2023/03/07 13:31:12;;;;;;;0.80;0.60;;;21.20;33.10;;;;;;6094813;29;20056;-49
2023/03/07 13:34:42;;;;;;;0.73;0.68;;;21.30;33.30;;;;;;6126129;29;20146;-52
2023/03/07 13:37:49;;;;;;;0.70;0.60;;;21.50;33.40;;;;;;6125602;29;20103;-54
2023/03/07 13:40:53;;;;;;;0.93;0.68;;;21.30;33.30;;;;;;6127103;29;20488;-53
2023/03/07 13:44:00;;;;;;;1.10;0.80;;;21.60;33.50;;;;;;6110039;29;20040;-54
2023/03/07 13:47:03;;;;;;;0.77;0.60;;;21.50;33.50;;;;;;6126428;29;20055;-52
2023/03/07 13:50:36;;;;;;;0.82;0.65;;;21.30;33.40;;;;;;6125280;29;20052;-51
2023/03/07 13:53:42;;;;;;;0.60;0.50;;;21.50;33.60;;;;;;6126656;29;20102;-54
2023/03/07 13:56:44;;;;;;;0.43;0.40;;;21.40;33.60;;;;;;6126755;29;20051;-53
2023/03/07 13:59:46;;;;;;;;;;;21.50;33.70;;;;;;6126821;29;20078;-53
2023/03/07 14:02:49;;;;;;;0.80;0.60;;;21.30;33.70;;;;;;6126172;29;19930;-54
2023/03/07 14:05:50;;;;;;;0.82;0.63;;;21.50;33.80;;;;;;6126593;29;20047;-52
2023/03/07 14:09:00;;;;;;;0.80;0.63;;;21.30;34.40;;;;;;6126470;29;20114;-54
2023/03/07 14:12:08;;;;;;;;;;;20.80;33.60;;;;;;6126631;29;20407;-54
2023/03/07 14:15:25;;;;;;;0.65;0.55;;;21.50;34.00;;;;;;6127202;29;20271;-54
2023/03/07 14:18:43;;;;;;;0.50;0.50;;;21.50;34.10;;;;;;6126230;29;20044;-55
2023/03/07 14:21:54;;;;;;;0.73;0.60;;;21.40;34.20;;;;;;6126201;29;20048;-54
2023/03/07 14:25:10;;;;;;;0.63;0.63;;;21.40;34.30;;;;;;6126343;29;20070;-54
2023/03/07 14:28:19;;;;;;;0.55;0.55;;;21.30;34.40;;;;;;6126323;29;20058;-54
2023/03/07 14:31:24;;;;;;;0.60;0.60;;;21.40;34.60;;;;;;6124981;29;20432;-54
2023/03/07 14:34:28;;;;;;;0.47;0.40;;;21.50;34.70;;;;;;6125802;29;20055;-54
2023/03/07 14:37:31;;;;;;;0.60;0.60;;;21.70;34.90;;;;;;6124688;29;20075;-53
2023/03/07 14:40:45;;;;;;;0.38;0.38;;;21.30;34.80;;;;;;6125802;29;20052;-51
2023/03/07 14:44:02;;;;;;;0.60;0.40;;;21.60;35.10;;;;;;6125781;29;20131;-54
2023/03/07 14:47:25;;;;;;;0.57;0.50;;;21.50;35.20;;;;;;6124622;29;20058;-54
2023/03/07 14:50:29;;;;;;;0.50;0.50;;;21.60;35.40;;;;;;6130023;29;20536;-53
2023/03/07 14:53:33;;;;;;;0.40;0.32;;;21.50;35.40;;;;;;6128755;29;20075;-52
2023/03/07 14:56:36;;;;;;;0.60;0.60;;;21.60;35.50;;;;;;6128990;29;20043;-53
2023/03/07 14:59:38;;;;;;;0.47;0.40;;;21.50;35.60;;;;;;6129884;29;20047;-55
2023/03/07 15:02:46;;;;;;;0.40;0.40;;;21.40;35.70;;;;;;6129704;29;20520;-54
2023/03/07 15:05:53;;;;;;;0.70;0.45;;;21.50;35.80;;;;;;6130338;29;20044;-54
2023/03/07 15:08:57;;;;;;;0.50;0.40;;;21.50;35.80;;;;;;6128449;29;20044;-53
2023/03/07 15:12:03;;;;;;;0.50;0.45;;;21.50;36.00;;;;;;6128260;29;20071;-53
2023/03/07 15:15:06;;;;;;;0.60;0.60;;;21.60;36.10;;;;;;6129322;29;20048;-52
2023/03/07 15:18:20;;;;;;;0.50;0.40;;;21.40;36.00;;;;;;6129960;29;20048;-55
2023/03/07 15:21:25;;;;;;;0.43;0.43;;;21.70;36.40;;;;;;6129577;29;20051;-54
2023/03/07 15:24:31;;;;;;;0.82;0.50;;;21.50;36.30;;;;;;6129816;29;20385;-53
2023/03/07 15:27:33;;;;;;;0.45;0.40;;;21.60;36.40;;;;;;6128466;29;20051;-53
2023/03/07 15:30:37;;;;;;;0.50;0.45;;;21.40;36.30;;;;;;6129450;29;20040;-54
2023/03/07 15:33:38;;;;;;;0.50;0.50;;;21.60;36.50;;;;;;6127982;29;20047;-53
2023/03/07 15:36:40;;;;;;;;;;;21.70;36.60;;;;;;6129524;29;20448;-52
2023/03/07 15:39:42;;;;;;;0.88;0.50;;;21.50;36.50;;;;;;6129910;29;19978;-51
2023/03/07 15:42:47;;;;;;;;;;;21.20;36.30;;;;;;6129457;29;20044;-55
2023/03/07 15:46:00;;;;;;;0.47;0.30;;;21.80;36.70;;;;;;6129107;29;20387;-54
2023/03/07 15:49:02;;;;;;;0.40;0.40;;;21.40;36.60;;;;;;6128585;29;20058;-52
2023/03/07 15:52:06;;;;;;;0.45;0.45;;;21.50;36.70;;;;;;6128529;29;20047;-55
2023/03/07 15:55:18;;;;;;;0.40;0.38;;;21.60;36.90;;;;;;6128395;29;20199;-55
2023/03/07 15:58:21;;;;;;;0.38;0.38;;;21.40;37.00;;;;;;6127359;29;20411;-53
2023/03/07 16:01:25;;;;;;;0.40;0.40;;;21.60;37.00;;;;;;6129067;29;20429;-54
2023/03/07 16:04:37;;;;;;;1.02;0.70;;;21.50;37.00;;;;;;6128557;29;20513;-53
2023/03/07 16:07:39;;;;;;;0.57;0.45;;;21.70;37.30;;;;;;6127438;29;20047;-54
2023/03/07 16:10:47;;;;;;;0.63;0.50;;;21.50;37.10;;;;;;6128935;29;20052;-53
2023/03/07 16:13:54;;;;;;;0.57;0.40;;;21.50;37.20;;;;;;6128060;29;20095;-55